createdAt,value
2023-02-20T00:01:28.945Z,4.67
2023-02-20T00:04:30.493Z,4.68
2023-02-20T00:07:32.078Z,4.65
2023-02-20T00:10:34.404Z,4.64
2023-02-20T00:13:36.407Z,4.62
2023-02-20T00:16:39.570Z,4.61
2023-02-20T00:19:41.430Z,4.59
2023-02-20T00:22:43.423Z,4.56
2023-02-20T00:25:45.195Z,4.57
2023-02-20T00:28:46.937Z,4.55
2023-02-20T00:31:54.556Z,4.54
2023-02-20T00:34:56.225Z,4.55
2023-02-20T00:37:57.862Z,4.56
2023-02-20T00:40:59.387Z,4.55
2023-02-20T00:44:01.032Z,4.54
2023-02-20T00:47:03.998Z,4.54
2023-02-20T00:50:06.697Z,4.52
2023-02-20T00:53:08.402Z,4.51
2023-02-20T00:56:10.317Z,4.49
2023-02-20T00:59:12.171Z,4.49
2023-02-20T01:02:15.601Z,4.53
2023-02-20T01:05:17.208Z,4.49
2023-02-20T01:08:18.857Z,4.48
2023-02-20T01:11:20.625Z,4.47
2023-02-20T01:14:22.517Z,4.47
2023-02-20T01:17:25.428Z,4.48
2023-02-20T01:20:27.121Z,4.45
2023-02-20T01:23:29.578Z,4.44
2023-02-20T01:26:31.235Z,4.45
2023-02-20T01:29:32.765Z,4.47
2023-02-20T01:32:35.762Z,4.45
2023-02-20T01:35:37.529Z,4.46
2023-02-20T01:38:40.187Z,4.45
2023-02-20T01:41:41.804Z,4.46
2023-02-20T01:44:43.627Z,4.45
2023-02-20T01:47:46.622Z,4.46
2023-02-20T01:50:50.978Z,4.44
2023-02-20T01:53:52.646Z,4.44
2023-02-20T01:56:57.148Z,4.44
2023-02-20T02:00:02.789Z,4.43
2023-02-20T02:03:07.690Z,4.43
2023-02-20T02:06:11.653Z,4.41
2023-02-20T02:09:19.847Z,4.42
2023-02-20T02:12:23.951Z,4.42
2023-02-20T02:15:25.835Z,4.42
2023-02-20T02:18:34.770Z,4.43
2023-02-20T02:22:04.597Z,4.42
2023-02-20T02:25:17.057Z,4.44
2023-02-20T02:28:32.470Z,4.43
2023-02-20T02:31:46.175Z,4.43
2023-02-20T02:35:09.484Z,4.43
2023-02-20T02:38:17.335Z,4.43
2023-02-20T02:41:22.101Z,4.41
2023-02-20T02:44:30.253Z,4.37
2023-02-20T02:47:35.447Z,4.36
2023-02-20T02:50:38.980Z,4.37
2023-02-20T02:54:05.214Z,4.38
2023-02-20T02:57:19.777Z,4.36
2023-02-20T03:00:23.396Z,4.33
2023-02-20T03:03:27.656Z,4.33
2023-02-20T03:06:35.665Z,4.32
2023-02-20T03:09:40.706Z,4.33
2023-02-20T03:12:45.644Z,4.33
2023-02-20T03:15:51.124Z,4.35
2023-02-20T03:18:56.498Z,4.36
2023-02-20T03:21:58.371Z,4.36
2023-02-20T03:25:03.966Z,4.38
2023-02-20T03:28:10.293Z,4.41
2023-02-20T03:31:14.725Z,4.43
2023-02-20T03:34:38.498Z,4.45
2023-02-20T03:38:00.754Z,4.48
2023-02-20T03:41:23.824Z,4.51
2023-02-20T03:44:27.248Z,4.56
2023-02-20T03:47:30.523Z,4.55
2023-02-20T03:50:50.915Z,4.56
2023-02-20T03:53:53.843Z,4.58
2023-02-20T03:57:01.135Z,4.59
2023-02-20T04:00:04.672Z,4.57
2023-02-20T04:03:18.933Z,4.63
2023-02-20T04:06:25.664Z,4.66
2023-02-20T04:09:30.971Z,4.69
2023-02-20T04:12:37.129Z,4.75
2023-02-20T04:15:38.952Z,4.79
2023-02-20T04:18:41.078Z,4.81
2023-02-20T04:21:44.460Z,4.87
2023-02-20T04:24:49.114Z,4.91
2023-02-20T04:27:52.558Z,4.92
2023-02-20T04:30:54.639Z,4.95
2023-02-20T04:33:56.292Z,4.95
2023-02-20T04:37:05.829Z,4.95
2023-02-20T04:40:08.921Z,4.97
2023-02-20T04:43:12.433Z,4.96
2023-02-20T04:46:15.144Z,4.99
2023-02-20T04:49:17.297Z,4.96
2023-02-20T04:52:24.655Z,4.97
2023-02-20T04:55:28.830Z,5.01
2023-02-20T04:58:37.310Z,5.02
2023-02-20T05:01:52.242Z,5.03
2023-02-20T05:04:53.830Z,5.06
2023-02-20T05:07:55.893Z,5.12
2023-02-20T05:10:57.440Z,5.18
2023-02-20T05:14:00.411Z,5.17
2023-02-20T05:17:02.199Z,5.18
2023-02-20T05:20:04.295Z,5.15
2023-02-20T05:23:06.002Z,5.15
2023-02-20T05:26:09.238Z,5.15
2023-02-20T05:29:13.664Z,5.15
2023-02-20T05:32:16.769Z,5.14
2023-02-20T05:35:18.334Z,5.18
2023-02-20T05:38:20.138Z,5.20
2023-02-20T05:41:21.832Z,5.22
2023-02-20T05:44:24.751Z,5.21
2023-02-20T05:47:26.271Z,5.26
2023-02-20T05:50:27.943Z,5.27
2023-02-20T05:53:33.130Z,5.27
2023-02-20T05:56:34.955Z,5.28
2023-02-20T05:59:37.890Z,5.25
2023-02-20T06:02:39.527Z,5.23
2023-02-20T06:05:41.056Z,5.23
2023-02-20T06:08:43.094Z,5.26
2023-02-20T06:11:49.407Z,5.27
2023-02-20T06:14:52.424Z,5.24
2023-02-20T06:17:54.095Z,5.27
2023-02-20T06:20:55.865Z,5.24
2023-02-20T06:23:57.654Z,5.24
2023-02-20T06:27:01.967Z,5.21
2023-02-20T06:30:05.772Z,5.24
2023-02-20T06:33:07.496Z,5.21
2023-02-20T06:36:19.062Z,5.19
2023-02-20T06:39:20.635Z,5.20
2023-02-20T06:42:22.214Z,5.21
2023-02-20T06:45:25.270Z,5.22
2023-02-20T06:48:26.991Z,5.24
2023-02-20T06:51:29.115Z,5.29
2023-02-20T06:54:30.680Z,5.29
2023-02-20T06:57:32.934Z,5.33
2023-02-20T07:00:36.584Z,5.31
2023-02-20T07:03:38.315Z,5.30
2023-02-20T07:06:39.929Z,5.33
2023-02-20T07:09:44.279Z,5.33
2023-02-20T07:12:46.217Z,5.30
2023-02-20T07:15:49.409Z,5.31
2023-02-20T07:18:50.991Z,5.32
2023-02-20T07:21:52.714Z,5.33
2023-02-20T07:24:54.404Z,5.36
2023-02-20T07:27:56.062Z,5.35
2023-02-20T07:30:59.152Z,5.35
2023-02-20T07:34:00.814Z,5.33
2023-02-20T07:37:09.203Z,5.30
2023-02-20T07:40:12.271Z,5.29
2023-02-20T07:43:14.010Z,5.26
2023-02-20T07:46:20.266Z,5.22
2023-02-20T07:49:22.183Z,5.24
2023-02-20T07:52:24.590Z,5.24
2023-02-20T07:55:26.226Z,5.24
2023-02-20T07:58:30.965Z,5.23
2023-02-20T08:01:33.942Z,5.21
2023-02-20T08:04:35.588Z,5.22
2023-02-20T08:07:37.346Z,5.21
2023-02-20T08:10:38.943Z,5.20
2023-02-20T08:13:42.157Z,5.18
2023-02-20T08:16:45.066Z,5.18
2023-02-20T08:19:47.199Z,5.12
2023-02-20T08:22:49.646Z,5.10
2023-02-20T08:25:51.997Z,5.07
2023-02-20T08:28:54.203Z,5.05
2023-02-20T08:31:57.244Z,5.04
2023-02-20T08:34:58.863Z,5.05
2023-02-20T08:38:02.730Z,5.05
2023-02-20T08:41:06.836Z,5.07
2023-02-20T08:44:08.610Z,5.06
2023-02-20T08:47:11.578Z,5.05
2023-02-20T08:50:13.256Z,5.06
2023-02-20T08:53:15.126Z,5.06
2023-02-20T08:56:18.079Z,5.04
2023-02-20T08:59:19.749Z,5.03
2023-02-20T09:02:29.120Z,5.03
2023-02-20T09:05:30.728Z,5.04
2023-02-20T09:08:32.325Z,5.03
2023-02-20T09:11:34.085Z,5.04
2023-02-20T09:14:36.112Z,5.05
2023-02-20T09:17:39.339Z,5.08
2023-02-20T09:20:41.318Z,5.08
2023-02-20T09:23:43.068Z,5.05
2023-02-20T09:26:44.634Z,5.01
2023-02-20T09:29:47.545Z,4.99
2023-02-20T09:32:50.890Z,4.94
2023-02-20T09:35:54.731Z,4.94
2023-02-20T09:38:56.599Z,4.89
2023-02-20T09:42:05.396Z,4.91
2023-02-20T09:45:10.262Z,4.84
2023-02-20T09:48:20.131Z,4.88
2023-02-20T09:51:23.018Z,4.91
2023-02-20T09:54:27.871Z,4.88
2023-02-20T09:57:30.330Z,4.89
2023-02-20T10:00:33.413Z,4.87
2023-02-20T10:03:40.328Z,4.89
2023-02-20T10:06:41.915Z,4.87
2023-02-20T10:09:43.853Z,4.90
2023-02-20T10:12:50.263Z,4.91
2023-02-20T10:15:55.735Z,4.92
2023-02-20T10:19:04.352Z,4.93
2023-02-20T10:22:12.281Z,4.91
2023-02-20T10:25:16.655Z,4.94
2023-02-20T10:28:19.222Z,4.95
2023-02-20T10:31:28.191Z,4.94
2023-02-20T10:34:35.131Z,4.94
2023-02-20T10:37:47.411Z,4.89
2023-02-20T10:40:51.154Z,4.91
2023-02-20T10:43:54.843Z,4.92
2023-02-20T10:50:57.893Z,4.93
2023-02-20T10:54:04.604Z,4.97
2023-02-20T10:57:07.967Z,5.03
2023-02-20T11:00:15.502Z,5.06
2023-02-20T11:03:19.834Z,5.02
2023-02-20T11:06:23.346Z,5.06
2023-02-20T11:09:26.436Z,5.12
2023-02-20T11:12:32.371Z,5.13
2023-02-20T11:15:34.824Z,5.13
2023-02-20T11:18:38.339Z,5.15
2023-02-20T11:21:41.413Z,5.17
2023-02-20T11:24:44.716Z,5.19
2023-02-20T11:27:48.140Z,5.20
2023-02-20T11:30:50.597Z,5.24
2023-02-20T11:33:54.250Z,5.24
2023-02-20T11:36:56.666Z,5.29
2023-02-20T11:40:00.695Z,5.28
2023-02-20T11:43:09.739Z,5.25
2023-02-20T11:46:14.575Z,5.20
2023-02-20T11:49:23.484Z,5.21
2023-02-20T11:52:25.116Z,5.20
2023-02-20T11:55:29.585Z,5.22
2023-02-20T11:58:32.278Z,5.23
2023-02-20T12:01:35.578Z,5.22
2023-02-20T12:04:37.077Z,5.24
2023-02-20T12:07:43.091Z,5.23
2023-02-20T12:10:46.960Z,5.26
2023-02-20T12:13:49.296Z,5.23
2023-02-20T12:16:59.639Z,5.24
2023-02-20T12:20:04.790Z,5.31
2023-02-20T12:23:14.944Z,5.33
2023-02-20T12:26:25.522Z,5.33
2023-02-20T12:29:40.282Z,5.35
2023-02-20T12:32:47.996Z,5.36
2023-02-20T12:35:53.877Z,5.38
2023-02-20T12:38:58.027Z,5.36
2023-02-20T12:42:06.615Z,5.37
2023-02-20T12:45:14.916Z,5.39
2023-02-20T12:48:22.059Z,5.40
2023-02-20T12:51:30.459Z,5.41
2023-02-20T12:54:37.435Z,5.41
2023-02-20T12:57:42.463Z,5.41
2023-02-20T13:00:46.423Z,5.41
2023-02-20T13:03:52.192Z,5.42
2023-02-20T13:07:00.619Z,5.42
2023-02-20T13:10:04.755Z,5.43
2023-02-20T13:13:10.637Z,5.46
2023-02-20T13:16:16.704Z,5.47
2023-02-20T13:19:22.256Z,5.47
2023-02-20T13:22:23.919Z,5.46
2023-02-20T13:25:35.075Z,5.47
2023-02-20T13:28:48.292Z,5.49
2023-02-20T13:31:50.893Z,5.53
2023-02-20T13:34:52.805Z,5.52
2023-02-20T13:37:55.554Z,5.53
2023-02-20T13:41:04.196Z,5.55
2023-02-20T13:44:20.689Z,5.56
2023-02-20T13:47:46.281Z,5.58
2023-02-20T13:50:49.215Z,5.60
2023-02-20T13:53:51.780Z,5.62
2023-02-20T13:56:59.743Z,5.62
2023-02-20T14:00:01.965Z,5.64
2023-02-20T14:03:10.212Z,5.65
2023-02-20T14:06:14.844Z,5.66
2023-02-20T14:09:18.920Z,5.65
2023-02-20T14:12:20.553Z,5.67
2023-02-20T14:15:24.519Z,5.67
2023-02-20T14:18:27.801Z,5.70
2023-02-20T14:21:31.191Z,5.70
2023-02-20T14:24:32.871Z,5.69
2023-02-20T14:27:34.575Z,5.68
2023-02-20T14:30:36.266Z,5.68
2023-02-20T14:33:37.987Z,5.67
2023-02-20T14:36:54.530Z,5.68
2023-02-20T14:40:02.055Z,5.68
2023-02-20T14:43:05.113Z,5.66
2023-02-20T14:46:07.715Z,5.66
2023-02-20T14:49:10.531Z,5.65
2023-02-20T14:52:14.090Z,5.65
2023-02-20T14:55:17.959Z,5.64
2023-02-20T14:58:23.378Z,5.63
2023-02-20T15:01:39.029Z,5.62
2023-02-20T15:04:46.935Z,5.61
2023-02-20T15:07:48.527Z,5.61
2023-02-20T15:10:52.810Z,5.63
2023-02-20T15:13:55.393Z,5.63
2023-02-20T15:17:07.059Z,5.63
2023-02-20T15:20:16.525Z,5.64
2023-02-20T15:23:23.532Z,5.65
2023-02-20T15:26:31.609Z,5.64
2023-02-20T15:29:33.209Z,5.65
2023-02-20T15:32:35.618Z,5.66
2023-02-20T15:35:37.215Z,5.64
2023-02-20T15:38:39.084Z,5.65
2023-02-20T15:41:42.497Z,5.67
2023-02-20T15:44:44.173Z,5.69
2023-02-20T15:47:45.867Z,5.69
2023-02-20T15:50:47.622Z,5.70
2023-02-20T15:53:51.335Z,5.70
2023-02-20T15:56:54.397Z,5.69
2023-02-20T15:59:56.181Z,5.69
2023-02-20T16:02:58.369Z,5.69
2023-02-20T16:06:00.361Z,5.70
2023-02-20T16:09:01.931Z,5.71
2023-02-20T16:12:05.333Z,5.69
2023-02-20T16:15:07.521Z,5.69
2023-02-20T16:18:09.570Z,5.68
2023-02-20T16:21:13.200Z,5.68
2023-02-20T16:24:15.192Z,5.66
2023-02-20T16:27:24.387Z,5.66
2023-02-20T16:30:33.324Z,5.66
2023-02-20T16:33:35.954Z,5.65
2023-02-20T16:36:37.790Z,5.65
2023-02-20T16:39:39.600Z,5.62
2023-02-20T16:42:42.886Z,5.61
2023-02-20T16:45:44.819Z,5.61
2023-02-20T16:48:49.396Z,5.60
2023-02-20T16:51:59.284Z,5.60
2023-02-20T16:55:02.830Z,5.58
2023-02-20T16:58:05.976Z,5.58
2023-02-20T17:01:08.716Z,5.59
2023-02-20T17:04:13.554Z,5.58
2023-02-20T17:07:15.639Z,5.56
2023-02-20T17:10:17.487Z,5.58
2023-02-20T17:13:20.899Z,5.57
2023-02-20T17:16:31.425Z,5.57
2023-02-20T17:19:33.882Z,5.59
2023-02-20T17:22:35.825Z,5.58
2023-02-20T17:25:37.577Z,5.57
2023-02-20T17:28:40.686Z,5.57
2023-02-20T17:31:42.404Z,5.57
2023-02-20T17:34:44.495Z,5.57
2023-02-20T17:37:46.111Z,5.58
2023-02-20T17:40:47.850Z,5.59
2023-02-20T17:43:51.217Z,5.61
2023-02-20T17:46:53.051Z,5.61
2023-02-20T17:49:56.063Z,5.62
2023-02-20T17:52:57.910Z,5.62
2023-02-20T17:55:59.520Z,5.64
2023-02-20T17:59:02.748Z,5.66
2023-02-20T18:02:04.314Z,5.66
2023-02-20T18:05:06.297Z,5.67
2023-02-20T18:08:08.071Z,5.68
2023-02-20T18:11:09.657Z,5.70
2023-02-20T18:14:13.788Z,5.74
2023-02-20T18:17:15.686Z,5.73
2023-02-20T18:20:17.475Z,5.74
2023-02-20T18:23:19.058Z,5.74
2023-02-20T18:26:21.093Z,5.76
2023-02-20T18:29:25.402Z,5.76
2023-02-20T18:32:27.185Z,5.79
2023-02-20T18:35:29.720Z,5.79
2023-02-20T18:38:31.531Z,5.80
2023-02-20T18:41:34.532Z,5.80
2023-02-20T18:44:37.552Z,5.82
2023-02-20T18:47:39.108Z,5.80
2023-02-20T18:50:40.864Z,5.81
2023-02-20T18:53:44.646Z,5.86
2023-02-20T18:56:46.754Z,5.84
2023-02-20T18:59:49.826Z,5.85
2023-02-20T19:02:52.508Z,5.85
2023-02-20T19:05:54.174Z,5.86
2023-02-20T19:08:56.059Z,5.86
2023-02-20T19:11:57.772Z,5.86
2023-02-20T19:15:06.220Z,5.85
2023-02-20T19:18:08.045Z,5.85
2023-02-20T19:21:10.265Z,5.86
2023-02-20T19:24:12.562Z,5.85
2023-02-20T19:27:14.217Z,5.85
2023-02-20T19:30:17.691Z,5.86
2023-02-20T19:33:19.445Z,5.86
2023-02-20T19:36:21.138Z,5.83
2023-02-20T19:39:24.286Z,5.82
2023-02-20T19:42:28.538Z,5.80
2023-02-20T19:45:31.977Z,5.81
2023-02-20T19:48:33.831Z,5.82
2023-02-20T19:51:37.422Z,5.85
2023-02-20T19:54:40.747Z,5.85
2023-02-20T19:57:42.373Z,5.83
2023-02-20T20:00:45.367Z,5.83
2023-02-20T20:03:47.297Z,5.84
2023-02-20T20:06:49.495Z,5.86
2023-02-20T20:09:50.995Z,5.87
2023-02-20T20:12:52.837Z,5.86
2023-02-20T20:15:57.051Z,5.86
2023-02-20T20:18:58.569Z,5.87
2023-02-20T20:22:00.276Z,5.87
2023-02-20T20:25:02.267Z,5.91
2023-02-20T20:28:09.776Z,5.92
2023-02-20T20:31:13.207Z,5.91
2023-02-20T20:34:14.860Z,5.92
2023-02-20T20:37:16.495Z,5.93
2023-02-20T20:40:18.342Z,5.92
2023-02-20T20:43:19.999Z,5.93
2023-02-20T20:46:23.110Z,5.91
2023-02-20T20:49:24.646Z,5.92
2023-02-20T20:52:26.896Z,5.96
2023-02-20T20:55:28.567Z,5.97
2023-02-20T20:58:30.529Z,5.96
2023-02-20T21:01:33.500Z,5.97
2023-02-20T21:04:35.611Z,5.97
2023-02-20T21:07:37.327Z,5.99
2023-02-20T21:10:39.289Z,6.00
2023-02-20T21:13:40.897Z,6.00
2023-02-20T21:16:43.879Z,6.00
2023-02-20T21:19:46.442Z,6.00
2023-02-20T21:22:49.146Z,6.01
2023-02-20T21:25:50.918Z,6.03
2023-02-20T21:28:54.963Z,6.05
2023-02-20T21:31:58.310Z,6.05
2023-02-20T21:35:00.157Z,6.05
2023-02-20T21:38:02.034Z,6.08
2023-02-20T21:41:04.492Z,6.09
2023-02-20T21:44:24.587Z,6.09
2023-02-20T21:47:28.057Z,6.09
2023-02-20T21:50:29.607Z,6.12
2023-02-20T21:53:31.213Z,6.12
2023-02-20T21:56:33.406Z,6.15
2023-02-20T21:59:35.211Z,6.15
2023-02-20T22:02:38.296Z,6.15
2023-02-20T22:05:40.266Z,6.16
2023-02-20T22:09:00.933Z,6.17
2023-02-20T22:12:21.296Z,6.19
2023-02-20T22:15:41.605Z,6.18
2023-02-20T22:19:03.378Z,6.19
2023-02-20T22:22:23.834Z,6.19
2023-02-20T22:25:44.371Z,6.20
2023-02-20T22:29:05.200Z,6.21
2023-02-20T22:32:26.950Z,6.23
2023-02-20T22:35:49.167Z,6.25
2023-02-20T22:39:10.385Z,6.26
2023-02-20T22:42:35.111Z,6.28
2023-02-20T22:45:55.877Z,6.27
2023-02-20T22:49:16.146Z,6.27
2023-02-20T22:52:39.735Z,6.29
2023-02-20T22:56:00.147Z,6.30
2023-02-20T22:59:20.562Z,6.33
2023-02-20T23:02:40.892Z,6.33
2023-02-20T23:06:15.245Z,6.31
2023-02-20T23:09:38.599Z,6.32
2023-02-20T23:12:58.659Z,6.33
2023-02-20T23:16:18.953Z,6.34
2023-02-20T23:19:39.322Z,6.35
2023-02-20T23:23:00.539Z,6.37
2023-02-20T23:26:25.145Z,6.37
2023-02-20T23:29:46.085Z,6.38
2023-02-20T23:33:06.285Z,6.39
2023-02-20T23:36:27.214Z,6.41
2023-02-20T23:39:48.638Z,6.41
2023-02-20T23:43:11.795Z,6.42
2023-02-20T23:46:32.595Z,6.44
2023-02-20T23:49:52.860Z,6.43
2023-02-20T23:53:13.265Z,6.44
2023-02-20T23:56:33.712Z,6.44
2023-02-20T23:59:56.772Z,6.48
